createdAt,value
2022-07-25T00:02:20.761Z,62.60
2022-07-25T00:04:49.357Z,62.15
2022-07-25T00:07:17.451Z,61.78
2022-07-25T00:09:45.539Z,62.04
2022-07-25T00:12:14.087Z,62.37
2022-07-25T00:14:43.321Z,62.21
2022-07-25T00:17:11.284Z,62.35
2022-07-25T00:19:39.568Z,62.40
2022-07-25T00:22:07.871Z,62.76
2022-07-25T00:24:36.685Z,62.90
2022-07-25T00:27:04.597Z,63.33
2022-07-25T00:29:32.483Z,64.03
2022-07-25T00:32:01.675Z,64.51
2022-07-25T00:34:29.604Z,65.34
2022-07-25T00:36:57.481Z,65.33
2022-07-25T00:39:25.406Z,65.32
2022-07-25T00:41:53.318Z,65.38
2022-07-25T00:44:25.619Z,65.43
2022-07-25T00:46:53.656Z,65.58
2022-07-25T00:49:23.059Z,65.34
2022-07-25T00:51:51.224Z,65.23
2022-07-25T00:54:19.604Z,65.24
2022-07-25T00:56:48.392Z,64.80
2022-07-25T00:59:17.138Z,64.28
2022-07-25T01:01:48.072Z,64.64
2022-07-25T01:04:17.054Z,64.14
2022-07-25T01:06:46.896Z,64.30
2022-07-25T01:09:15.407Z,64.44
2022-07-25T01:11:43.583Z,64.10
2022-07-25T01:14:11.572Z,64.10
2022-07-25T01:16:41.021Z,64.31
2022-07-25T01:19:09.059Z,64.40
2022-07-25T01:21:41.245Z,64.35
2022-07-25T01:24:10.558Z,64.21
2022-07-25T01:26:39.119Z,63.83
2022-07-25T01:29:07.150Z,64.01
2022-07-25T01:31:35.117Z,63.81
2022-07-25T01:34:03.653Z,63.81
2022-07-25T01:36:31.856Z,63.77
2022-07-25T01:39:01.187Z,63.98
2022-07-25T01:41:29.036Z,63.89
2022-07-25T01:43:56.959Z,63.77
2022-07-25T01:46:24.935Z,64.15
2022-07-25T01:48:52.936Z,64.33
2022-07-25T01:51:20.977Z,64.42
2022-07-25T01:53:49.654Z,64.40
2022-07-25T01:56:20.836Z,64.62
2022-07-25T01:58:50.433Z,64.84
2022-07-25T02:01:19.470Z,64.59
2022-07-25T02:03:49.956Z,64.69
2022-07-25T02:06:19.345Z,64.70
2022-07-25T02:08:47.320Z,64.91
2022-07-25T02:11:16.008Z,64.72
2022-07-25T02:13:45.304Z,64.61
2022-07-25T02:16:13.240Z,65.06
2022-07-25T02:18:42.276Z,65.18
2022-07-25T02:21:14.047Z,65.43
2022-07-25T02:23:42.975Z,65.32
2022-07-25T02:26:11.506Z,65.39
2022-07-25T02:28:39.533Z,65.35
2022-07-25T02:31:09.459Z,65.55
2022-07-25T02:33:38.172Z,65.89
2022-07-25T02:36:06.625Z,65.77
2022-07-25T02:38:34.530Z,66.17
2022-07-25T02:41:02.469Z,66.11
2022-07-25T02:43:31.013Z,66.29
2022-07-25T02:45:59.013Z,66.54
2022-07-25T02:48:28.394Z,66.55
2022-07-25T02:50:56.603Z,66.38
2022-07-25T02:53:46.786Z,66.54
2022-07-25T02:56:12.386Z,66.92
2022-07-25T02:58:42.127Z,66.93
2022-07-25T03:01:10.100Z,67.24
2022-07-25T03:03:39.387Z,66.91
2022-07-25T03:06:07.626Z,67.20
2022-07-25T03:08:35.572Z,67.33
2022-07-25T03:11:03.628Z,67.25
2022-07-25T03:13:33.113Z,67.12
2022-07-25T03:16:01.396Z,67.19
2022-07-25T03:18:29.328Z,67.14
2022-07-25T03:20:58.611Z,66.80
2022-07-25T03:23:27.347Z,66.94
2022-07-25T03:25:55.611Z,67.20
2022-07-25T03:28:24.609Z,67.20
2022-07-25T03:30:53.016Z,67.15
2022-07-25T03:33:21.260Z,67.58
2022-07-25T03:35:49.362Z,67.73
2022-07-25T03:38:18.762Z,67.67
2022-07-25T03:40:46.722Z,67.80
2022-07-25T03:43:14.776Z,67.86
2022-07-25T03:45:42.893Z,68.36
2022-07-25T03:48:10.832Z,68.14
2022-07-25T03:50:38.740Z,68.18
2022-07-25T03:53:06.636Z,68.34
2022-07-25T03:55:40.666Z,68.08
2022-07-25T03:58:08.687Z,68.30
2022-07-25T04:00:36.957Z,68.13
2022-07-25T04:03:05.022Z,68.13
2022-07-25T04:05:32.919Z,67.85
2022-07-25T04:08:00.837Z,68.08
2022-07-25T04:10:28.953Z,68.10
2022-07-25T04:12:58.161Z,67.73
2022-07-25T04:15:26.194Z,67.99
2022-07-25T04:17:54.031Z,68.41
2022-07-25T04:20:23.313Z,68.05
2022-07-25T04:22:51.164Z,67.87
2022-07-25T04:25:19.041Z,67.78
2022-07-25T04:27:46.886Z,67.82
2022-07-25T04:30:24.421Z,67.73
2022-07-25T04:32:53.498Z,67.80
2022-07-25T04:35:21.787Z,68.20
2022-07-25T04:37:50.215Z,67.69
2022-07-25T04:40:18.208Z,67.76
2022-07-25T04:42:46.052Z,67.80
2022-07-25T04:45:14.103Z,67.94
2022-07-25T04:48:10.462Z,67.50
2022-07-25T04:50:38.433Z,67.89
2022-07-25T04:53:06.809Z,67.53
2022-07-25T04:55:36.220Z,67.45
2022-07-25T04:58:04.116Z,67.54
2022-07-25T05:00:32.444Z,67.38
2022-07-25T05:03:00.627Z,67.60
2022-07-25T05:05:29.898Z,67.44
2022-07-25T05:07:59.344Z,67.75
2022-07-25T05:10:28.307Z,67.31
2022-07-25T05:12:56.413Z,67.11
2022-07-25T05:15:24.862Z,66.70
2022-07-25T05:17:52.765Z,67.05
2022-07-25T05:20:20.844Z,66.86
2022-07-25T05:22:50.289Z,66.97
2022-07-25T05:25:18.315Z,66.79
2022-07-25T05:27:46.779Z,66.68
2022-07-25T05:30:15.673Z,66.72
2022-07-25T05:32:43.662Z,66.39
2022-07-25T05:35:12.008Z,66.20
2022-07-25T05:37:39.997Z,66.25
2022-07-25T05:40:09.780Z,66.48
2022-07-25T05:42:37.767Z,66.09
2022-07-25T05:45:06.631Z,65.35
2022-07-25T05:47:34.538Z,65.41
2022-07-25T05:50:03.149Z,64.60
2022-07-25T05:52:31.043Z,64.10
2022-07-25T05:54:58.886Z,63.44
2022-07-25T05:57:28.318Z,62.73
2022-07-25T05:59:56.180Z,62.78
2022-07-25T06:02:24.608Z,62.51
2022-07-25T06:04:52.566Z,62.30
2022-07-25T06:07:20.469Z,60.79
2022-07-25T06:09:48.376Z,60.21
2022-07-25T06:12:16.330Z,59.50
2022-07-25T06:14:45.615Z,59.00
2022-07-25T06:17:13.533Z,59.70
2022-07-25T06:19:41.515Z,59.67
2022-07-25T06:22:09.620Z,59.19
2022-07-25T06:24:37.495Z,59.51
2022-07-25T06:27:05.801Z,58.82
2022-07-25T06:29:33.784Z,58.03
2022-07-25T06:32:03.102Z,57.27
2022-07-25T06:34:31.067Z,57.19
2022-07-25T06:36:59.407Z,57.00
2022-07-25T06:39:28.131Z,56.82
2022-07-25T06:41:56.076Z,56.04
2022-07-25T06:44:27.712Z,56.39
2022-07-25T06:46:55.681Z,55.84
2022-07-25T06:49:25.101Z,55.73
2022-07-25T06:51:53.015Z,56.06
2022-07-25T06:54:21.115Z,56.15
2022-07-25T06:56:49.250Z,55.90
2022-07-25T06:59:17.147Z,56.03
2022-07-25T07:01:49.506Z,55.84
2022-07-25T07:04:19.471Z,55.44
2022-07-25T07:06:48.643Z,55.02
2022-07-25T07:09:16.573Z,55.68
2022-07-25T07:11:44.531Z,55.39
2022-07-25T07:14:12.453Z,55.69
2022-07-25T07:16:41.355Z,55.56
2022-07-25T07:19:11.011Z,55.50
2022-07-25T07:21:38.991Z,55.35
2022-07-25T07:24:24.076Z,55.57
2022-07-25T07:26:53.460Z,54.63
2022-07-25T07:29:21.707Z,53.78
2022-07-25T07:31:49.735Z,53.68
2022-07-25T07:34:17.680Z,53.82
2022-07-25T07:36:45.654Z,53.52
2022-07-25T07:39:16.518Z,52.44
2022-07-25T07:41:45.171Z,52.16
2022-07-25T07:44:13.047Z,51.61
2022-07-25T07:46:41.010Z,52.07
2022-07-25T07:49:09.357Z,51.42
2022-07-25T07:51:37.727Z,52.11
2022-07-25T07:54:23.883Z,50.94
2022-07-25T07:56:53.268Z,51.20
2022-07-25T07:59:22.011Z,51.02
2022-07-25T08:01:49.968Z,50.56
2022-07-25T08:04:17.867Z,49.91
2022-07-25T08:06:45.743Z,49.38
2022-07-25T08:09:13.901Z,49.40
2022-07-25T08:11:41.794Z,50.25
2022-07-25T08:14:11.048Z,50.48
2022-07-25T08:16:39.025Z,48.79
2022-07-25T08:19:07.196Z,48.97
2022-07-25T08:21:35.132Z,48.13
2022-07-25T08:24:03.171Z,48.27
2022-07-25T08:26:33.859Z,49.25
2022-07-25T08:29:18.289Z,48.17
2022-07-25T08:31:48.795Z,46.99
2022-07-25T08:34:16.767Z,46.93
2022-07-25T08:36:44.636Z,46.83
2022-07-25T08:39:13.420Z,46.23
2022-07-25T08:41:42.245Z,46.77
2022-07-25T08:44:10.787Z,45.75
2022-07-25T08:46:41.535Z,44.94
2022-07-25T08:49:11.575Z,45.60
2022-07-25T08:51:40.934Z,45.03
2022-07-25T08:54:10.182Z,44.41
2022-07-25T08:56:38.379Z,44.81
2022-07-25T08:59:06.361Z,45.65
2022-07-25T09:01:35.050Z,45.27
2022-07-25T09:04:05.358Z,45.11
2022-07-25T09:06:34.995Z,44.81
2022-07-25T09:09:04.948Z,45.08
2022-07-25T09:11:34.666Z,44.47
2022-07-25T09:14:06.027Z,43.62
2022-07-25T09:16:40.128Z,43.14
2022-07-25T09:19:13.790Z,43.92
2022-07-25T09:21:45.611Z,42.58
2022-07-25T09:24:16.052Z,42.33
2022-07-25T09:26:49.215Z,41.44
2022-07-25T09:29:22.426Z,41.37
2022-07-25T09:31:51.283Z,40.68
2022-07-25T09:34:31.937Z,39.84
2022-07-25T09:37:01.661Z,41.12
2022-07-25T09:39:45.988Z,40.47
2022-07-25T09:42:23.041Z,39.00
2022-07-25T09:45:06.656Z,36.92
2022-07-25T09:47:37.066Z,36.29
2022-07-25T09:50:06.777Z,36.21
2022-07-25T09:52:36.758Z,36.65
2022-07-25T09:55:06.570Z,35.77
2022-07-25T09:57:34.521Z,34.73
2022-07-25T10:00:02.878Z,32.94
2022-07-25T10:02:49.777Z,32.26
2022-07-25T10:05:26.831Z,32.75
2022-07-25T10:07:56.780Z,33.22
2022-07-25T10:10:30.692Z,33.88
2022-07-25T10:13:07.827Z,33.30
2022-07-25T10:15:42.894Z,32.78
2022-07-25T10:18:11.134Z,32.99
2022-07-25T10:20:39.369Z,31.25
2022-07-25T10:23:23.284Z,30.94
2022-07-25T10:26:08.332Z,31.07
2022-07-25T10:28:39.588Z,32.00
2022-07-25T10:31:17.591Z,31.14
2022-07-25T10:33:49.808Z,31.41
2022-07-25T10:36:18.315Z,31.32
2022-07-25T10:38:47.795Z,31.77
2022-07-25T10:41:17.455Z,30.79
2022-07-25T10:43:48.693Z,31.52
2022-07-25T10:46:20.494Z,31.20
2022-07-25T10:48:59.223Z,31.34
2022-07-25T10:51:29.410Z,30.34
2022-07-25T10:54:01.347Z,31.32
2022-07-25T10:56:30.082Z,30.26
2022-07-25T10:58:59.096Z,29.70
2022-07-25T11:01:29.849Z,29.67
2022-07-25T11:03:59.766Z,29.39
2022-07-25T11:06:32.886Z,29.59
2022-07-25T11:09:03.283Z,30.84
2022-07-25T11:11:36.815Z,30.80
2022-07-25T11:14:05.500Z,30.27
2022-07-25T11:16:33.457Z,29.50
2022-07-25T11:19:01.871Z,29.34
2022-07-25T11:21:29.753Z,28.29
2022-07-25T11:23:57.633Z,28.39
2022-07-25T11:26:26.977Z,28.75
2022-07-25T11:28:54.875Z,27.98
2022-07-25T11:31:24.049Z,28.20
2022-07-25T11:33:52.217Z,28.43
2022-07-25T11:36:20.919Z,28.10
2022-07-25T11:38:50.234Z,27.97
2022-07-25T11:41:30.586Z,28.29
2022-07-25T11:43:58.498Z,28.55
2022-07-25T11:46:26.965Z,29.10
2022-07-25T11:49:07.503Z,28.19
2022-07-25T11:51:39.692Z,28.35
2022-07-25T11:54:13.279Z,28.20
2022-07-25T11:56:43.948Z,28.36
2022-07-25T11:59:12.542Z,27.83
2022-07-25T12:01:42.131Z,27.67
2022-07-25T12:04:12.090Z,27.38
2022-07-25T12:06:40.482Z,27.96
2022-07-25T12:09:18.299Z,28.17
2022-07-25T12:11:50.137Z,27.79
2022-07-25T12:14:18.076Z,28.18
2022-07-25T12:16:46.061Z,28.46
2022-07-25T12:19:21.500Z,28.51
2022-07-25T12:21:49.371Z,27.53
2022-07-25T12:24:17.269Z,27.74
2022-07-25T12:26:45.212Z,26.69
2022-07-25T12:29:14.560Z,27.66
2022-07-25T12:31:42.579Z,28.24
2022-07-25T12:34:10.528Z,28.12
2022-07-25T12:36:44.104Z,27.61
2022-07-25T12:39:12.322Z,28.16
2022-07-25T12:41:42.593Z,28.28
2022-07-25T12:44:11.270Z,29.03
2022-07-25T12:46:47.152Z,29.07
2022-07-25T12:49:17.299Z,28.95
2022-07-25T12:51:45.338Z,29.40
2022-07-25T12:54:14.096Z,29.78
2022-07-25T12:56:44.236Z,29.85
2022-07-25T12:59:12.257Z,29.25
2022-07-25T13:01:41.534Z,29.42
2022-07-25T13:04:10.332Z,29.47
2022-07-25T13:06:39.141Z,29.80
2022-07-25T13:09:07.999Z,29.69
2022-07-25T13:11:36.145Z,29.01
2022-07-25T13:14:04.680Z,28.84
2022-07-25T13:16:34.159Z,29.08
2022-07-25T13:19:03.790Z,29.51
2022-07-25T13:21:32.089Z,29.53
2022-07-25T13:24:00.028Z,28.74
2022-07-25T13:26:28.056Z,30.66
2022-07-25T13:29:04.876Z,28.98
2022-07-25T13:31:36.205Z,28.56
2022-07-25T13:34:05.598Z,28.30
2022-07-25T13:36:36.069Z,29.40
2022-07-25T13:39:05.026Z,28.46
2022-07-25T13:41:33.785Z,28.47
2022-07-25T13:44:02.255Z,28.27
2022-07-25T13:46:30.158Z,29.12
2022-07-25T13:48:58.045Z,28.96
2022-07-25T13:51:27.375Z,29.08
2022-07-25T13:53:55.457Z,29.68
2022-07-25T13:56:23.396Z,29.00
2022-07-25T13:58:51.280Z,29.43
2022-07-25T14:01:19.221Z,29.79
2022-07-25T14:03:47.418Z,29.41
2022-07-25T14:06:15.320Z,30.33
2022-07-25T14:08:44.720Z,31.26
2022-07-25T14:11:12.661Z,31.14
2022-07-25T14:13:40.556Z,30.93
2022-07-25T14:16:08.890Z,31.30
2022-07-25T14:18:36.889Z,31.94
2022-07-25T14:21:04.975Z,31.46
2022-07-25T14:23:32.888Z,31.58
2022-07-25T14:26:02.179Z,32.32
2022-07-25T14:28:30.737Z,31.68
2022-07-25T14:31:00.004Z,31.68
2022-07-25T14:33:27.926Z,31.54
2022-07-25T14:35:56.254Z,32.16
2022-07-25T14:38:24.190Z,32.35
2022-07-25T14:40:52.724Z,31.50
2022-07-25T14:43:21.939Z,31.40
2022-07-25T14:45:49.851Z,31.46
2022-07-25T14:48:17.764Z,31.11
2022-07-25T14:50:45.677Z,31.83
2022-07-25T14:53:14.780Z,31.50
2022-07-25T14:55:42.691Z,31.68
2022-07-25T14:58:10.664Z,31.55
2022-07-25T15:00:43.331Z,30.75
2022-07-25T15:03:11.273Z,30.84
2022-07-25T15:05:39.467Z,31.18
2022-07-25T15:08:07.659Z,31.31
2022-07-25T15:10:35.696Z,31.76
2022-07-25T15:13:29.480Z,31.79
2022-07-25T15:15:52.941Z,31.17
2022-07-25T15:18:20.966Z,32.04
2022-07-25T15:20:48.820Z,30.76
2022-07-25T15:23:16.766Z,30.62
2022-07-25T15:26:01.198Z,30.59
2022-07-25T15:28:30.770Z,31.59
2022-07-25T15:31:00.202Z,30.70
2022-07-25T15:33:28.328Z,31.40
2022-07-25T15:35:56.598Z,31.92
2022-07-25T15:38:24.642Z,32.30
2022-07-25T15:40:52.934Z,34.43
2022-07-25T15:43:20.875Z,34.59
2022-07-25T15:45:48.880Z,35.04
2022-07-25T15:48:19.233Z,35.65
2022-07-25T15:50:48.545Z,35.82
2022-07-25T15:53:16.509Z,35.88
2022-07-25T15:55:44.848Z,35.11
2022-07-25T15:58:13.255Z,34.70
2022-07-25T16:00:41.531Z,34.87
2022-07-25T16:03:10.046Z,35.27
2022-07-25T16:05:39.974Z,34.91
2022-07-25T16:08:09.942Z,34.90
2022-07-25T16:10:38.315Z,35.75
2022-07-25T16:13:07.080Z,35.69
2022-07-25T16:15:35.015Z,35.20
2022-07-25T16:18:03.300Z,34.87
2022-07-25T16:20:32.388Z,34.95
2022-07-25T16:23:02.729Z,35.26
2022-07-25T16:25:31.278Z,35.24
2022-07-25T16:28:00.184Z,35.65
2022-07-25T16:30:28.701Z,35.67
2022-07-25T16:32:56.712Z,35.74
2022-07-25T16:35:24.889Z,35.66
2022-07-25T16:37:52.948Z,35.23
2022-07-25T16:40:28.683Z,35.76
2022-07-25T16:42:59.505Z,35.95
2022-07-25T16:45:28.268Z,35.45
2022-07-25T16:47:56.303Z,35.61
2022-07-25T16:50:24.320Z,35.22
2022-07-25T16:52:53.609Z,35.33
2022-07-25T16:55:23.041Z,35.46
2022-07-25T16:57:51.159Z,35.74
2022-07-25T17:00:19.225Z,36.22
2022-07-25T17:02:47.115Z,36.26
2022-07-25T17:05:15.037Z,36.59
2022-07-25T17:07:43.209Z,36.46
2022-07-25T17:10:11.696Z,36.66
2022-07-25T17:12:40.976Z,36.40
2022-07-25T17:15:10.084Z,36.34
2022-07-25T17:17:38.015Z,36.08
2022-07-25T17:20:06.829Z,36.25
2022-07-25T17:22:34.822Z,36.48
2022-07-25T17:25:02.780Z,36.30
2022-07-25T17:27:31.172Z,36.67
2022-07-25T17:30:00.394Z,36.58
2022-07-25T17:32:30.139Z,37.06
2022-07-25T17:34:58.322Z,37.22
2022-07-25T17:37:27.718Z,37.47
2022-07-25T17:39:55.806Z,37.23
2022-07-25T17:42:23.982Z,37.32
2022-07-25T17:44:52.482Z,37.41
2022-07-25T17:47:23.014Z,37.31
2022-07-25T17:49:51.051Z,37.37
2022-07-25T17:52:18.973Z,37.59
2022-07-25T17:54:46.871Z,37.74
2022-07-25T17:57:14.756Z,37.76
2022-07-25T17:59:42.632Z,37.78
2022-07-25T18:02:59.277Z,37.94
2022-07-25T18:05:28.715Z,38.17
2022-07-25T18:07:56.744Z,38.56
2022-07-25T18:10:24.812Z,38.82
2022-07-25T18:12:53.039Z,39.07
2022-07-25T18:15:21.055Z,39.75
2022-07-25T18:17:49.846Z,39.56
2022-07-25T18:20:17.889Z,39.65
2022-07-25T18:22:47.240Z,40.03
2022-07-25T18:25:15.996Z,40.07
2022-07-25T18:27:44.964Z,40.36
2022-07-25T18:30:15.158Z,40.19
2022-07-25T18:32:43.118Z,40.79
2022-07-25T18:35:11.988Z,40.97
2022-07-25T18:37:40.236Z,40.76
2022-07-25T18:40:11.359Z,40.58
2022-07-25T18:42:39.417Z,40.56
2022-07-25T18:45:08.489Z,40.78
2022-07-25T18:47:36.356Z,41.14
2022-07-25T18:50:05.295Z,40.44
2022-07-25T18:52:35.118Z,40.58
2022-07-25T18:55:03.157Z,40.57
2022-07-25T18:57:32.691Z,39.97
2022-07-25T19:00:03.065Z,40.11
2022-07-25T19:02:31.858Z,39.74
2022-07-25T19:04:59.884Z,40.00
2022-07-25T19:07:29.754Z,40.35
2022-07-25T19:09:57.733Z,40.22
2022-07-25T19:12:27.215Z,40.17
2022-07-25T19:14:56.783Z,40.01
2022-07-25T19:17:25.122Z,40.27
2022-07-25T19:19:53.795Z,39.67
2022-07-25T19:22:21.887Z,40.01
2022-07-25T19:24:49.789Z,40.31
2022-07-25T19:27:18.149Z,40.43
2022-07-25T19:29:46.059Z,40.01
2022-07-25T19:32:17.974Z,40.29
2022-07-25T19:34:46.293Z,40.24
2022-07-25T19:37:14.256Z,40.38
2022-07-25T19:39:42.218Z,40.41
2022-07-25T19:42:12.170Z,40.41
2022-07-25T19:44:40.636Z,41.11
2022-07-25T19:47:11.605Z,40.96
2022-07-25T19:49:41.534Z,41.27
2022-07-25T19:52:10.951Z,41.21
2022-07-25T19:54:39.172Z,41.10
2022-07-25T19:57:07.313Z,41.19
2022-07-25T19:59:35.392Z,41.63
2022-07-25T20:02:04.137Z,41.06
2022-07-25T20:04:32.236Z,41.51
2022-07-25T20:07:02.329Z,41.35
2022-07-25T20:09:30.464Z,41.57
2022-07-25T20:11:58.758Z,41.74
2022-07-25T20:14:26.659Z,41.67
2022-07-25T20:16:54.669Z,41.84
2022-07-25T20:19:22.601Z,41.75
2022-07-25T20:21:50.752Z,42.06
2022-07-25T20:24:21.667Z,42.23
2022-07-25T20:26:50.013Z,42.33
2022-07-25T20:29:18.194Z,42.23
2022-07-25T20:31:46.640Z,42.27
2022-07-25T20:34:15.873Z,42.61
2022-07-25T20:36:47.396Z,42.70
2022-07-25T20:39:15.317Z,42.43
2022-07-25T20:41:44.832Z,42.24
2022-07-25T20:44:13.156Z,42.25
2022-07-25T20:46:41.036Z,41.90
2022-07-25T20:49:09.723Z,41.92
2022-07-25T20:51:40.479Z,41.42
2022-07-25T20:54:08.467Z,41.46
2022-07-25T20:56:36.356Z,41.49
2022-07-25T20:59:05.967Z,41.63
2022-07-25T21:01:34.107Z,41.47
2022-07-25T21:04:07.006Z,41.78
2022-07-25T21:06:35.441Z,41.68
2022-07-25T21:09:06.051Z,41.40
2022-07-25T21:11:35.552Z,41.50
2022-07-25T21:14:05.685Z,41.38
2022-07-25T21:16:34.561Z,41.64
2022-07-25T21:19:02.481Z,41.42
2022-07-25T21:21:30.501Z,41.58
2022-07-25T21:23:58.360Z,41.53
2022-07-25T21:26:26.375Z,41.77
2022-07-25T21:28:54.310Z,41.93
2022-07-25T21:31:23.824Z,42.18
2022-07-25T21:33:51.735Z,42.39
2022-07-25T21:36:19.659Z,42.25
2022-07-25T21:38:47.789Z,42.65
2022-07-25T21:41:16.154Z,42.84
2022-07-25T21:43:44.245Z,43.36
2022-07-25T21:46:12.295Z,43.02
2022-07-25T21:48:59.255Z,43.37
2022-07-25T21:51:36.767Z,43.48
2022-07-25T21:54:09.128Z,44.03
2022-07-25T21:56:37.496Z,43.81
2022-07-25T21:59:06.478Z,43.83
2022-07-25T22:01:34.714Z,44.45
2022-07-25T22:04:04.104Z,44.28
2022-07-25T22:06:32.064Z,44.55
2022-07-25T22:08:59.971Z,44.45
2022-07-25T22:11:42.408Z,45.26
2022-07-25T22:14:14.469Z,45.37
2022-07-25T22:16:42.394Z,45.43
2022-07-25T22:19:11.921Z,45.42
2022-07-25T22:21:40.516Z,45.47
2022-07-25T22:24:09.195Z,45.76
2022-07-25T22:26:37.713Z,45.79
2022-07-25T22:29:06.076Z,46.20
2022-07-25T22:31:34.268Z,46.20
2022-07-25T22:34:02.223Z,46.04
2022-07-25T22:36:31.591Z,46.05
2022-07-25T22:38:59.448Z,46.36
2022-07-25T22:41:27.736Z,46.46
2022-07-25T22:43:57.788Z,46.47
2022-07-25T22:46:28.031Z,46.62
2022-07-25T22:48:56.049Z,46.99
2022-07-25T22:51:24.143Z,47.78
2022-07-25T22:53:53.440Z,47.12
2022-07-25T22:56:21.775Z,47.27
2022-07-25T22:58:49.774Z,47.69
2022-07-25T23:01:17.870Z,47.86
2022-07-25T23:03:45.995Z,47.95
2022-07-25T23:06:14.115Z,48.09
2022-07-25T23:08:42.029Z,48.12
2022-07-25T23:11:11.282Z,48.02
2022-07-25T23:13:39.228Z,48.33
2022-07-25T23:16:10.171Z,48.84
2022-07-25T23:18:38.946Z,48.87
2022-07-25T23:21:07.358Z,49.10
2022-07-25T23:23:35.409Z,49.07
2022-07-25T23:26:04.448Z,49.05
2022-07-25T23:28:33.680Z,49.46
2022-07-25T23:31:01.595Z,49.59
2022-07-25T23:33:30.214Z,49.84
2022-07-25T23:35:58.245Z,50.98
2022-07-25T23:38:26.385Z,50.61
2022-07-25T23:40:54.812Z,50.41
2022-07-25T23:43:40.834Z,50.90
2022-07-25T23:46:12.002Z,51.29
2022-07-25T23:48:40.008Z,51.13
2022-07-25T23:51:08.517Z,51.04
2022-07-25T23:53:37.131Z,51.13
2022-07-25T23:56:05.517Z,51.35
2022-07-25T23:58:33.429Z,51.21
